Aviation Digital Data Service (ADDS)

Output produced by METARs form (1255 UTC 22 March 2019)
found at http://www.aviationweather.gov/metar/data/
 
Forecast for: ZYTX (SHENYANG/TAOKIAN, CN)
Text: TAF ZYTX 220705Z 2212/2312 20003MPS CAVOK TX08/2306Z TNM04/21Z
Forecast period: 1200 UTC 22 March 2019 to 0100 UTC 23 March 2019
Forecast type: FROM: standard forecast or significant change
Winds: from the SSW (200 degrees) at 7 MPH (6 knots; 3.1 m/s)
Visibility: 6 or more miles 10+ km)
Ceiling: unknown
Clouds: missing
Weather: no significant weather forecast for this period
Text: BECMG 2301/2302 31004MPS
Forecast period: 0100 to 1200 UTC 23 March 2019
Forecast type: BECOMING: Conditions expected to become as follows by 0200 UTC 23 March 2019
Winds: from the NW (310 degrees) at 9 MPH (8 knots; 4.1 m/s)
Visibility: 6 or more miles 10+ km)
Ceiling: unknown
Clouds: missing
Weather: no significant weather forecast for this period